Time;durP1;ratioP1;P1;durP2;ratioP2;P2;SDS_P1;SDS_P2;PMS_P1;PMS_P2;Temp;Humidity;BMP_temperature;BMP_pressure;BME280_temperature;BME280_humidity;BME280_pressure;Samples;Min_cycle;Max_cycle;Signal;HPM_P1;HPM_P2
2022/01/24 00:00:30;;;;;;;;;;;5.00;99.90;;;;;;4999201;28;20013;-74
2022/01/24 00:02:57;;;;;;;;;;;5.00;99.90;;;;;;4993008;28;20646;-75
2022/01/24 00:05:24;;;;;;;;;;;5.00;99.90;;;;;;4991735;28;20346;-75
2022/01/24 00:07:50;;;;;;;;;;;5.00;99.90;;;;;;5007967;28;19932;-75
2022/01/24 00:10:24;;;;;;;;;;;5.00;99.90;;;;;;5006381;28;19936;-75
2022/01/24 00:13:06;;;;;;;;;;;4.90;99.90;;;;;;5004680;28;20408;-75
2022/01/24 00:15:54;;;;;;;;;;;4.90;99.90;;;;;;4991684;28;19926;-75
2022/01/24 00:18:31;;;;;;;;;;;4.90;99.90;;;;;;4997211;28;20395;-75
2022/01/24 00:26:46;;;;;;;;;;;4.80;99.90;;;;;;4998634;28;19940;-75
2022/01/24 00:29:14;;;;;;;;;;;4.70;99.90;;;;;;5005831;28;20299;-75
2022/01/24 00:31:40;;;;;;;;;;;4.70;99.90;;;;;;5006754;28;19956;-76
2022/01/24 00:34:07;;;;;;;;;;;4.70;99.90;;;;;;4991397;28;20009;-75
2022/01/24 00:36:35;;;;;;;;;;;4.60;99.90;;;;;;5002252;28;19932;-75
2022/01/24 00:39:01;;;;;;;;;;;4.60;99.90;;;;;;5008765;28;19979;-75
2022/01/24 00:41:28;;;;;;;;;;;4.60;99.90;;;;;;5000784;28;20372;-75
2022/01/24 00:44:14;;;;;;;;;;;4.60;99.90;;;;;;4997709;28;19929;-76
2022/01/24 00:46:48;;;;;;;;;;;4.60;99.90;;;;;;4999955;28;19932;-75
2022/01/24 00:49:26;;;;;;;;;;;4.60;99.90;;;;;;5002207;28;19969;-75
2022/01/24 00:54:47;;;;;;;;;;;4.60;99.90;;;;;;5005976;28;19952;-75
2022/01/24 00:57:14;;;;;;;;;;;4.70;99.90;;;;;;5001492;28;19957;-75
2022/01/24 00:59:41;;;;;;;;;;;4.50;99.90;;;;;;5004193;28;19926;-75
2022/01/24 01:02:09;;;;;;;;;;;4.40;99.90;;;;;;5000778;28;19926;-76
2022/01/24 01:04:46;;;;;;;;;;;4.40;99.90;;;;;;4993153;28;20020;-76
2022/01/24 01:07:17;;;;;;;;;;;4.40;99.90;;;;;;5001677;28;19972;-76
2022/01/24 01:18:14;;;;;;;;;;;4.30;99.90;;;;;;4994367;28;19986;-75
2022/01/24 01:20:56;;;;;;;;;;;4.30;99.90;;;;;;5000353;28;19940;-76
2022/01/24 01:23:23;;;;;;;;;;;4.40;99.90;;;;;;4996064;28;19926;-76
2022/01/24 01:25:52;;;;;;;;;;;4.30;99.90;;;;;;4998244;28;19925;-76
2022/01/24 01:28:20;;;;;;;;;;;4.40;99.90;;;;;;4999021;28;19952;-75
2022/01/24 01:30:50;;;;;;;;;;;4.40;99.90;;;;;;5002304;28;19937;-75
2022/01/24 01:33:26;;;;;;;;;;;4.50;99.90;;;;;;5000758;28;19926;-76
2022/01/24 01:36:05;;;;;;;;;;;4.50;99.90;;;;;;4992966;28;19979;-75
2022/01/24 01:38:50;;;;;;;;;;;4.50;99.90;;;;;;4994015;28;19972;-74
2022/01/24 01:52:44;;;;;;;;;;;4.50;99.90;;;;;;5002675;28;19932;-75
2022/01/24 01:55:24;;;;;;;;;;;4.50;99.90;;;;;;5006729;28;19934;-75
2022/01/24 01:57:51;;;;;;;;;;;4.50;99.90;;;;;;5003455;28;20330;-75
2022/01/24 02:00:17;;;;;;;;;;;4.50;99.90;;;;;;5006363;28;19973;-76
2022/01/24 02:02:44;;;;;;;;;;;4.50;99.90;;;;;;5005681;28;20889;-75
2022/01/24 02:05:12;;;;;;;;;;;4.50;99.90;;;;;;5003292;28;19948;-75
2022/01/24 02:07:45;;;;;;;;;;;4.60;99.90;;;;;;4996165;28;19925;-76
2022/01/24 02:10:12;;;;;;;;;;;4.60;99.90;;;;;;4995757;28;19926;-75
2022/01/24 02:12:39;;;;;;;;;;;4.60;99.90;;;;;;4994281;28;20017;-75
2022/01/24 02:15:06;;;;;;;;;;;4.60;99.90;;;;;;4997774;28;20020;-75
2022/01/24 02:17:44;;;;;;;;;;;4.60;99.90;;;;;;5001915;28;19926;-76
2022/01/24 02:20:27;;;;;;;;;;;4.60;99.90;;;;;;4998638;28;20703;-76
2022/01/24 02:23:17;;;;;;;;;;;4.60;99.90;;;;;;5006024;28;19951;-75
2022/01/24 02:25:44;;;;;;;;;;;4.50;99.90;;;;;;5004419;28;19933;-75
2022/01/24 02:28:13;;;;;;;;;;;4.50;99.90;;;;;;4998311;28;19926;-75
2022/01/24 02:30:55;;;;;;;;;;;4.50;99.90;;;;;;4994744;28;19930;-75
2022/01/24 02:33:21;;;;;;;;;;;4.60;99.90;;;;;;5005160;28;20005;-75
2022/01/24 02:35:48;;;;;;;;;;;4.50;99.90;;;;;;4995343;28;20004;-75
2022/01/24 02:38:26;;;;;;;;;;;4.50;99.90;;;;;;5001467;28;19929;-74
2022/01/24 02:49:06;;;;;;;;;;;4.50;99.90;;;;;;5001197;28;19941;-74
2022/01/24 02:51:45;;;;;;;;;;;4.60;99.90;;;;;;5005728;28;19932;-75
2022/01/24 02:54:20;;;;;;;;;;;4.50;99.90;;;;;;5004437;28;19932;-75
2022/01/24 02:56:47;;;;;;;;;;;4.50;99.90;;;;;;5003156;28;19932;-75
2022/01/24 02:59:14;;;;;;;;;;;4.60;99.90;;;;;;5008209;28;19943;-75
2022/01/24 03:01:41;;;;;;;;;;;4.50;99.90;;;;;;5006284;28;19943;-75
2022/01/24 03:04:07;;;;;;;;;;;4.50;99.90;;;;;;5006825;28;19933;-75
2022/01/24 03:06:34;;;;;;;;;;;4.50;99.90;;;;;;5004583;28;19932;-75
2022/01/24 03:09:01;;;;;;;;;;;4.50;99.90;;;;;;5005102;28;19926;-75
2022/01/24 03:11:49;;;;;;;;;;;4.50;99.90;;;;;;5007902;28;19930;-75
2022/01/24 03:14:16;;;;;;;;;;;4.50;99.90;;;;;;4995394;28;20281;-75
2022/01/24 03:16:42;;;;;;;;;;;4.50;99.90;;;;;;5008322;28;20020;-75
2022/01/24 03:19:09;;;;;;;;;;;4.40;99.90;;;;;;5009009;28;20289;-75
2022/01/24 03:21:35;;;;;;;;;;;4.40;99.90;;;;;;5008511;28;19930;-75
2022/01/24 03:24:02;;;;;;;;;;;4.40;99.90;;;;;;5010185;28;19925;-75
2022/01/24 03:26:30;;;;;;;;;;;4.40;99.90;;;;;;5006986;28;19933;-74
2022/01/24 03:28:57;;;;;;;;;;;4.40;99.90;;;;;;5009320;28;19926;-74
2022/01/24 03:31:23;;;;;;;;;;;4.40;99.90;;;;;;4991557;28;19935;-75
2022/01/24 03:33:50;;;;;;;;;;;4.40;99.90;;;;;;5003082;28;19926;-74
2022/01/24 03:36:17;;;;;;;;;;;4.40;99.90;;;;;;5004405;28;19926;-75
2022/01/24 03:38:43;;;;;;;;;;;4.30;99.90;;;;;;5008509;28;20296;-74
2022/01/24 03:41:10;;;;;;;;;;;4.30;99.90;;;;;;5001111;28;19925;-75
2022/01/24 03:43:38;;;;;;;;;;;4.20;99.90;;;;;;4992371;28;19976;-75
2022/01/24 03:46:14;;;;;;;;;;;4.30;99.90;;;;;;5006272;28;19938;-74
2022/01/24 03:48:44;;;;;;;;;;;4.30;99.90;;;;;;4998678;28;19933;-74
2022/01/24 03:51:11;;;;;;;;;;;4.30;99.90;;;;;;5002337;28;20326;-75
2022/01/24 03:53:38;;;;;;;;;;;4.30;99.90;;;;;;5009893;28;19937;-75
2022/01/24 03:56:05;;;;;;;;;;;4.30;99.90;;;;;;5001260;28;19944;-75
2022/01/24 03:58:32;;;;;;;;;;;4.30;99.90;;;;;;5006065;28;19939;-75
2022/01/24 04:01:00;;;;;;;;;;;4.30;99.90;;;;;;5006166;28;19931;-74
2022/01/24 04:03:27;;;;;;;;;;;4.30;99.90;;;;;;4996298;28;20269;-75
2022/01/24 04:05:53;;;;;;;;;;;4.40;99.90;;;;;;4998147;28;19933;-75
2022/01/24 04:08:20;;;;;;;;;;;4.30;99.90;;;;;;5003984;28;19925;-76
2022/01/24 04:10:50;;;;;;;;;;;4.30;99.90;;;;;;5009183;28;19926;-74
2022/01/24 04:13:26;;;;;;;;;;;4.30;99.90;;;;;;5000879;28;19930;-75
2022/01/24 04:16:12;;;;;;;;;;;4.30;99.90;;;;;;5004043;28;19932;-75
2022/01/24 04:18:48;;;;;;;;;;;4.30;99.90;;;;;;4998957;28;19978;-75
2022/01/24 04:21:21;;;;;;;;;;;4.20;99.90;;;;;;5010435;28;19932;-76
2022/01/24 04:23:52;;;;;;;;;;;4.20;99.90;;;;;;5002506;28;19988;-76
2022/01/24 04:26:19;;;;;;;;;;;4.20;99.90;;;;;;4999707;28;19926;-75
2022/01/24 04:28:46;;;;;;;;;;;4.20;99.90;;;;;;5002288;28;20368;-75
2022/01/24 04:31:12;;;;;;;;;;;4.20;99.90;;;;;;5006682;28;19926;-75
2022/01/24 04:33:40;;;;;;;;;;;4.20;99.90;;;;;;5005057;28;19936;-75
2022/01/24 04:36:07;;;;;;;;;;;4.20;99.90;;;;;;5007144;28;19926;-75
2022/01/24 04:38:34;;;;;;;;;;;4.30;99.90;;;;;;4997789;28;19930;-75
2022/01/24 04:41:05;;;;;;;;;;;4.30;99.90;;;;;;5004291;28;19931;-75
2022/01/24 04:43:48;;;;;;;;;;;4.20;99.90;;;;;;5005098;28;20702;-75
2022/01/24 04:46:29;;;;;;;;;;;4.30;99.90;;;;;;4999683;28;19953;-75
2022/01/24 04:51:54;;;;;;;;;;;4.20;99.90;;;;;;4999163;28;20104;-75
2022/01/24 04:57:25;;;;;;;;;;;4.10;99.90;;;;;;5001908;28;20359;-76
2022/01/24 04:59:52;;;;;;;;;;;4.10;99.90;;;;;;5009544;28;19926;-75
2022/01/24 05:02:20;;;;;;;;;;;4.10;99.90;;;;;;5006675;28;19940;-74
2022/01/24 05:04:49;;;;;;;;;;;4.10;99.90;;;;;;5000033;28;20373;-75
2022/01/24 05:07:16;;;;;;;;;;;4.10;99.90;;;;;;4998530;28;19947;-75
2022/01/24 05:09:47;;;;;;;;;;;4.10;99.90;;;;;;4997158;28;19930;-75
2022/01/24 05:12:20;;;;;;;;;;;4.10;99.90;;;;;;5004759;28;19937;-75
2022/01/24 05:25:48;;;;;;;;;;;4.00;99.90;;;;;;4997909;28;19970;-77
2022/01/24 05:28:15;;;;;;;;;;;4.00;99.90;;;;;;5002976;28;20304;-77
2022/01/24 05:30:42;;;;;;;;;;;3.90;99.90;;;;;;5002535;28;19926;-76
2022/01/24 05:33:08;;;;;;;;;;;3.80;99.90;;;;;;5002004;28;19925;-76
2022/01/24 05:35:36;;;;;;;;;;;3.80;99.90;;;;;;5002772;28;19925;-77
2022/01/24 05:38:03;;;;;;;;;;;3.70;99.90;;;;;;5005696;28;20389;-77
2022/01/24 05:40:30;;;;;;;;;;;3.60;99.90;;;;;;4999167;28;19932;-76
2022/01/24 05:42:56;;;;;;;;;;;3.50;99.90;;;;;;5005963;28;19979;-75
2022/01/24 05:45:23;;;;;;;;;;;3.50;99.90;;;;;;4995063;28;19933;-73
2022/01/24 05:47:50;;;;;;;;;;;3.50;99.90;;;;;;4997543;28;19926;-75
2022/01/24 05:50:17;;;;;;;;;;;3.50;99.90;;;;;;5004581;28;20443;-76
2022/01/24 05:52:45;;;;;;;;;;;3.50;99.90;;;;;;5003510;28;20016;-76
2022/01/24 05:55:11;;;;;;;;;;;3.40;99.90;;;;;;4997209;28;20295;-76
2022/01/24 05:57:38;;;;;;;;;;;3.50;99.90;;;;;;4993801;28;19968;-76
2022/01/24 06:00:06;;;;;;;;;;;3.50;99.90;;;;;;4998081;28;20281;-76
2022/01/24 06:02:32;;;;;;;;;;;3.50;99.90;;;;;;4998433;28;19925;-76
2022/01/24 06:04:59;;;;;;;;;;;3.50;99.90;;;;;;4996317;28;19925;-75
2022/01/24 06:07:26;;;;;;;;;;;3.50;99.90;;;;;;4991880;28;19929;-76
2022/01/24 06:09:53;;;;;;;;;;;3.40;99.90;;;;;;5004993;28;19925;-72
2022/01/24 06:12:20;;;;;;;;;;;3.40;99.90;;;;;;5001136;28;19932;-72
2022/01/24 06:14:49;;;;;;;;;;;3.40;99.90;;;;;;4999318;28;19933;-72
2022/01/24 06:17:17;;;;;;;;;;;3.40;99.90;;;;;;4990354;28;20036;-72
2022/01/24 06:19:44;;;;;;;;;;;3.40;99.90;;;;;;4998509;28;20017;-72
2022/01/24 06:22:11;;;;;;;;;;;3.40;99.90;;;;;;5007420;28;19929;-72
2022/01/24 06:24:37;;;;;;;;;;;3.40;99.90;;;;;;4995815;28;19939;-71
2022/01/24 06:27:05;;;;;;;;;;;3.40;99.90;;;;;;4996300;28;20449;-71
2022/01/24 06:29:32;;;;;;;;;;;3.40;99.90;;;;;;5003931;28;19932;-71
2022/01/24 06:31:59;;;;;;;;;;;3.40;99.90;;;;;;4994915;28;19932;-72
2022/01/24 06:34:26;;;;;;;;;;;3.40;99.90;;;;;;4998143;28;19962;-72
2022/01/24 06:36:52;;;;;;;;;;;3.40;99.90;;;;;;4998219;28;20416;-70
2022/01/24 06:39:19;;;;;;;;;;;3.40;99.90;;;;;;5003670;28;19932;-71
2022/01/24 06:41:52;;;;;;;;;;;3.30;99.90;;;;;;5007104;28;20411;-71
2022/01/24 06:44:20;;;;;;;;;;;3.30;99.90;;;;;;5003724;28;19930;-71
2022/01/24 06:46:47;;;;;;;;;;;3.30;99.90;;;;;;4995008;28;20575;-70
2022/01/24 06:49:13;;;;;;;;;;;3.20;99.90;;;;;;4989189;28;19925;-71
2022/01/24 06:51:40;;;;;;;;;;;3.20;99.90;;;;;;4996164;28;19973;-71
2022/01/24 06:54:07;;;;;;;;;;;3.20;99.90;;;;;;5001354;28;19941;-71
2022/01/24 06:56:33;;;;;;;;;;;3.20;99.90;;;;;;4998877;28;19926;-71
2022/01/24 06:59:00;;;;;;;;;;;3.20;99.90;;;;;;4993755;28;20186;-72
2022/01/24 07:01:28;;;;;;;;;;;3.10;99.90;;;;;;5001139;28;20016;-72
2022/01/24 07:03:55;;;;;;;;;;;3.10;99.90;;;;;;4999471;28;19929;-71
2022/01/24 07:06:21;;;;;;;;;;;3.10;99.90;;;;;;5003488;28;19965;-71
2022/01/24 07:08:48;;;;;;;;;;;3.00;99.90;;;;;;4999662;28;19932;-71
2022/01/24 07:11:15;;;;;;;;;;;3.00;99.90;;;;;;5000217;28;19933;-71
2022/01/24 07:13:41;;;;;;;;;;;3.00;99.90;;;;;;4996085;28;20352;-72
2022/01/24 07:16:08;;;;;;;;;;;3.00;99.90;;;;;;5001962;28;20362;-71
2022/01/24 07:21:20;;;;;;;;;;;3.10;99.90;;;;;;4999416;28;19933;-72
2022/01/24 07:23:47;;;;;;;;;;;3.20;99.90;;;;;;5002819;28;20012;-71
2022/01/24 07:26:14;;;;;;;;;;;3.20;99.90;;;;;;5001045;28;19945;-74
2022/01/24 07:28:41;;;;;;;;;;;3.20;99.90;;;;;;4999628;28;19932;-71
2022/01/24 07:31:07;;;;;;;;;;;3.20;99.90;;;;;;4998466;28;19925;-71
2022/01/24 07:33:35;;;;;;;;;;;3.20;99.90;;;;;;5001136;28;20024;-72
2022/01/24 07:36:02;;;;;;;;;;;3.20;99.90;;;;;;4993582;28;19925;-72
2022/01/24 07:38:29;;;;;;;;;;;3.20;99.90;;;;;;4998102;28;20283;-71
2022/01/24 07:40:57;;;;;;;;;;;3.20;99.90;;;;;;5005294;28;19941;-70
2022/01/24 07:43:24;;;;;;;;;;;3.20;99.90;;;;;;5000255;28;19961;-71
2022/01/24 07:45:50;;;;;;;;;;;3.10;99.90;;;;;;4999483;28;19940;-71
2022/01/24 07:48:18;;;;;;;;;;;3.10;99.90;;;;;;5002278;28;19948;-71
2022/01/24 07:50:47;;;;;;;;;;;3.20;99.90;;;;;;5003992;28;19932;-72
2022/01/24 07:53:14;;;;;;;;;;;3.00;99.90;;;;;;5002471;28;20380;-71
2022/01/24 07:55:41;;;;;;;;;;;3.00;99.90;;;;;;4995960;28;20071;-72
2022/01/24 07:58:07;;;;;;;;;;;3.00;99.90;;;;;;5006332;28;20191;-72
2022/01/24 08:00:35;;;;;;;;;;;3.00;99.90;;;;;;5007183;28;19925;-71
2022/01/24 08:03:01;;;;;;;;;;;3.00;99.90;;;;;;5001221;28;20015;-71
2022/01/24 08:05:28;;;;;;;;;;;2.90;99.90;;;;;;5003178;28;19940;-72
2022/01/24 08:07:57;;;;;;;;;;;2.90;99.90;;;;;;4999389;28;20303;-73
2022/01/24 08:10:24;;;;;;;;;;;2.90;99.90;;;;;;5003062;28;19925;-71
2022/01/24 08:12:50;;;;;;;;;;;3.00;99.90;;;;;;4997323;28;20025;-71
2022/01/24 08:15:17;;;;;;;;;;;3.10;99.90;;;;;;5006926;28;20404;-72
2022/01/24 08:17:44;;;;;;;;;;;3.10;99.90;;;;;;4997210;28;19926;-71
2022/01/24 08:20:15;;;;;;;;;;;3.10;99.90;;;;;;5004168;28;20206;-72
2022/01/24 08:22:42;;;;;;;;;;;3.10;99.90;;;;;;4992143;28;19932;-72
2022/01/24 08:25:11;;;;;;;;;;;3.10;99.90;;;;;;4994822;28;19925;-72
2022/01/24 08:27:38;;;;;;;;;;;3.10;99.90;;;;;;4991770;28;19936;-72
2022/01/24 08:30:05;;;;;;;;;;;3.20;99.90;;;;;;4995692;28;19933;-72
2022/01/24 08:32:32;;;;;;;;;;;3.20;99.90;;;;;;4998092;28;19926;-71
2022/01/24 08:35:00;;;;;;;;;;;3.30;99.90;;;;;;4996183;28;19936;-72
2022/01/24 08:37:27;;;;;;;;;;;3.30;99.90;;;;;;4995064;28;20020;-73
2022/01/24 08:39:58;;;;;;;;;;;3.30;99.90;;;;;;4999195;28;20199;-72
2022/01/24 08:42:33;;;;;;;;;;;3.40;99.90;;;;;;4996263;28;20021;-72
2022/01/24 08:47:44;;;;;;;;;;;3.50;99.90;;;;;;4995086;28;19929;-72
2022/01/24 08:50:11;;;;;;;;;;;3.50;99.90;;;;;;4990718;28;20483;-75
2022/01/24 08:52:37;;;;;;;;;;;3.60;99.90;;;;;;4993766;28;20004;-72
2022/01/24 08:55:05;;;;;;;;;;;3.70;99.90;;;;;;5003105;28;19933;-72
2022/01/24 08:57:34;;;;;;;;;;;3.80;99.90;;;;;;4995020;28;19948;-72
2022/01/24 09:00:00;;;;;;;;;;;3.80;99.90;;;;;;4998820;28;19925;-71
2022/01/24 09:02:27;;;;;;;;;;;3.70;99.90;;;;;;4996482;28;19933;-72
2022/01/24 09:04:54;;;;;;;;;;;3.70;99.90;;;;;;4993319;28;19933;-71
2022/01/24 09:07:21;;;;;;;;;;;3.70;99.90;;;;;;4989076;28;19932;-72
2022/01/24 09:09:50;;;;;;;;;;;3.70;99.90;;;;;;4996181;28;19965;-71
2022/01/24 09:12:18;;;;;;;;;;;3.70;99.90;;;;;;4990955;28;20008;-71
2022/01/24 09:14:47;;;;;;;;;;;3.60;99.90;;;;;;4996251;28;19925;-71
2022/01/24 09:17:15;;;;;;;;;;;3.70;99.90;;;;;;4995383;28;19926;-71
2022/01/24 09:19:42;;;;;;;;;;;3.70;99.90;;;;;;4998520;28;19932;-70
2022/01/24 09:22:09;;;;;;;;;;;3.80;99.90;;;;;;5003025;28;19932;-71
2022/01/24 09:24:37;;;;;;;;;;;3.90;99.90;;;;;;5001847;28;19963;-71
2022/01/24 09:27:04;;;;;;;;;;;4.00;99.90;;;;;;4996948;28;20387;-72
2022/01/24 09:29:31;;;;;;;;;;;4.10;99.90;;;;;;4995734;28;19925;-71
2022/01/24 09:31:59;;;;;;;;;;;4.30;99.90;;;;;;4992232;28;20026;-71
2022/01/24 09:34:26;;;;;;;;;;;4.70;99.90;;;;;;4997836;28;20447;-72
2022/01/24 09:36:53;;;;;;;;;;;5.00;99.90;;;;;;4989416;28;20372;-71
2022/01/24 09:39:20;;;;;;;;;;;5.40;99.90;;;;;;4998275;28;20271;-71
2022/01/24 09:41:47;;;;;;;;;;;5.60;99.90;;;;;;4998331;28;19929;-71
2022/01/24 09:44:14;;;;;;;;;;;5.40;99.90;;;;;;4999507;28;19984;-72
2022/01/24 09:46:41;;;;;;;;;;;5.10;99.90;;;;;;4992065;28;19926;-71
2022/01/24 09:49:09;;;;;;;;;;;4.80;99.90;;;;;;4993156;28;19925;-71
2022/01/24 09:51:37;;;;;;;;;;;4.70;99.90;;;;;;4991588;28;19933;-71
2022/01/24 09:54:04;;;;;;;;;;;4.70;99.90;;;;;;4997517;28;19932;-71
2022/01/24 09:56:34;;;;;;;;;;;4.70;99.90;;;;;;4995060;28;19933;-71
2022/01/24 09:59:01;;;;;;;;;;;4.80;99.90;;;;;;4997301;28;19933;-72
2022/01/24 10:01:30;;;;;;;;;;;4.80;99.90;;;;;;4989364;28;19933;-71
2022/01/24 10:04:13;;;;;;;;;;;4.80;99.90;;;;;;4991873;28;19940;-72
2022/01/24 10:06:54;;;;;;;;;;;4.90;99.90;;;;;;4993720;28;20142;-71
2022/01/24 10:09:26;;;;;;;;;;;4.90;99.90;;;;;;4997596;28;19925;-71
2022/01/24 10:12:01;;;;;;;;;;;4.80;99.90;;;;;;4995060;28;19926;-72
2022/01/24 10:17:23;;;;;;;;;;;5.00;99.90;;;;;;4994885;28;19931;-71
2022/01/24 10:19:51;;;;;;;;;;;5.10;99.90;;;;;;4997972;28;19970;-72
2022/01/24 10:22:21;;;;;;;;;;;5.20;99.90;;;;;;5003633;28;19932;-71
2022/01/24 10:24:51;;;;;;;;;;;5.30;99.90;;;;;;5004540;28;19933;-72
2022/01/24 10:27:19;;;;;;;;;;;5.30;99.90;;;;;;4998997;28;20280;-72
2022/01/24 10:29:48;;;;;;;;;;;5.30;99.90;;;;;;5004086;28;20000;-72
2022/01/24 10:32:32;;;;;;;;;;;5.40;99.90;;;;;;5002186;28;19930;-72
2022/01/24 10:35:19;;;;;;;;;;;5.30;99.90;;;;;;4996320;28;19932;-71
2022/01/24 10:37:50;;;;;;;;;;;5.20;99.90;;;;;;4998680;28;19932;-71
2022/01/24 10:40:37;;;;;;;;;;;4.90;99.90;;;;;;4997516;28;19941;-71
2022/01/24 10:43:24;;;;;;;;;;;4.90;99.90;;;;;;4998421;28;20338;-71
2022/01/24 10:45:55;;;;;;;;;;;4.90;99.90;;;;;;4985658;28;19929;-71
2022/01/24 10:48:23;;;;;;;;;;;5.00;99.90;;;;;;4992537;28;19962;-71
2022/01/24 10:51:11;;;;;;;;;;;5.10;99.90;;;;;;4996306;28;19963;-73
2022/01/24 10:53:40;;;;;;;;;;;5.00;99.90;;;;;;4995765;28;20013;-72
2022/01/24 10:56:25;;;;;;;;;;;5.20;99.90;;;;;;4998452;28;19932;-72
2022/01/24 10:58:52;;;;;;;;;;;5.30;99.90;;;;;;4995504;28;19940;-72
2022/01/24 11:01:25;;;;;;;;;;;5.40;99.90;;;;;;4996627;28;20047;-72
2022/01/24 11:03:58;;;;;;;;;;;5.60;99.90;;;;;;4999061;28;19933;-72
2022/01/24 11:06:27;;;;;;;;;;;5.70;99.90;;;;;;5000421;28;19929;-71
2022/01/24 11:09:09;;;;;;;;;;;5.80;99.90;;;;;;4996825;28;20376;-73
2022/01/24 11:11:37;;;;;;;;;;;5.80;99.90;;;;;;5000598;28;20303;-72
2022/01/24 11:14:04;;;;;;;;;;;5.80;99.90;;;;;;4998303;28;19925;-71
2022/01/24 11:16:31;;;;;;;;;;;5.90;99.90;;;;;;4999773;28;19932;-72
2022/01/24 11:19:00;;;;;;;;;;;5.60;99.90;;;;;;4994871;28;19925;-72
2022/01/24 11:21:33;;;;;;;;;;;5.60;99.90;;;;;;4997680;28;19926;-72
2022/01/24 11:24:03;;;;;;;;;;;5.80;99.90;;;;;;4997122;28;20064;-73
2022/01/24 11:26:30;;;;;;;;;;;5.90;99.90;;;;;;4994883;28;19937;-72
2022/01/24 11:28:59;;;;;;;;;;;6.00;99.90;;;;;;5002140;28;19925;-72
2022/01/24 11:31:27;;;;;;;;;;;6.00;99.70;;;;;;5009518;28;19933;-72
2022/01/24 11:33:56;;;;;;;;;;;6.00;99.90;;;;;;5003090;28;20376;-72
2022/01/24 11:36:36;;;;;;;;;;;6.10;99.70;;;;;;5003272;28;20102;-72
2022/01/24 11:39:03;;;;;;;;;;;6.20;99.60;;;;;;4991478;28;19933;-71
2022/01/24 11:41:33;;;;;;;;;;;6.10;99.20;;;;;;4992176;28;20353;-71
2022/01/24 11:44:08;;;;;;;;;;;6.10;99.80;;;;;;4998437;28;19937;-72
2022/01/24 11:46:42;;;;;;;;;;;6.00;99.60;;;;;;4997574;28;19926;-71
2022/01/24 11:49:10;;;;;;;;;;;5.90;99.50;;;;;;4995388;28;19926;-71
2022/01/24 11:51:39;;;;;;;;;;;5.60;99.70;;;;;;4995258;28;19926;-71
2022/01/24 11:54:30;;;;;;;;;;;5.60;99.90;;;;;;4994772;28;19929;-71
2022/01/24 11:57:11;;;;;;;;;;;5.50;99.90;;;;;;4993952;28;19926;-70
2022/01/24 11:59:39;;;;;;;;;;;5.80;99.90;;;;;;4986722;28;19932;-72
2022/01/24 12:02:07;;;;;;;;;;;6.00;99.90;;;;;;4997493;28;21358;-72
2022/01/24 12:04:52;;;;;;;;;;;6.00;99.90;;;;;;4994588;28;19931;-72
2022/01/24 12:07:21;;;;;;;;;;;6.20;99.80;;;;;;4995279;28;19969;-72
2022/01/24 12:09:48;;;;;;;;;;;6.40;99.70;;;;;;4991362;28;19934;-71
2022/01/24 12:12:49;;;;;;;;;;;6.50;99.30;;;;;;4994548;28;19925;-73
2022/01/24 12:15:40;;;;;;;;;;;6.60;99.00;;;;;;4947807;28;19963;-73
2022/01/24 12:18:08;;;;;;;;;;;6.50;99.00;;;;;;4956657;28;19927;-72
2022/01/24 12:20:48;;;;;;;;;;;6.70;98.70;;;;;;4974760;28;19948;-72
2022/01/24 12:23:38;;;;;;;;;;;6.30;98.50;;;;;;4998649;28;19995;-72
2022/01/24 12:26:07;;;;;;;;;;;6.10;99.20;;;;;;4995416;28;19932;-72
2022/01/24 12:28:45;;;;;;;;;;;5.90;99.50;;;;;;4993321;28;19926;-72
2022/01/24 12:31:20;;;;;;;;;;;5.90;99.80;;;;;;4990281;28;19979;-72
2022/01/24 12:33:58;;;;;;;;;;;6.10;99.70;;;;;;4994056;28;19933;-72
2022/01/24 12:36:46;;;;;;;;;;;6.20;99.40;;;;;;4992736;28;19965;-72
2022/01/24 12:39:14;;;;;;;;;;;6.30;99.20;;;;;;4997549;28;19925;-71
2022/01/24 12:41:46;;;;;;;;;;;6.20;99.20;;;;;;4994326;28;19973;-71
2022/01/24 12:46:18;;;;;;;;;;;6.10;99.40;;;;;;4991483;28;20024;-71
2022/01/24 12:46:59;;;;;;;;;;;6.10;99.70;;;;;;4987571;28;20385;-71
2022/01/24 12:49:28;;;;;;;;;;;6.20;99.90;;;;;;4995196;28;19929;-72
2022/01/24 12:51:59;;;;;;;;;;;6.20;99.60;;;;;;4994423;28;20142;-72
2022/01/24 12:54:29;;;;;;;;;;;6.20;99.30;;;;;;4994552;28;20030;-71
2022/01/24 12:56:58;;;;;;;;;;;6.20;98.90;;;;;;4989340;28;19930;-71
2022/01/24 12:59:25;;;;;;;;;;;6.10;99.30;;;;;;4990245;28;20300;-72
2022/01/24 13:01:55;;;;;;;;;;;6.30;99.30;;;;;;4991243;28;19926;-71
2022/01/24 13:04:31;;;;;;;;;;;6.30;99.10;;;;;;4991198;28;19952;-72
2022/01/24 13:06:59;;;;;;;;;;;6.30;99.30;;;;;;4996158;28;19925;-72
2022/01/24 13:09:26;;;;;;;;;;;6.10;99.30;;;;;;4993172;28;20377;-71
2022/01/24 13:11:54;;;;;;;;;;;6.00;99.70;;;;;;4995523;28;20384;-72
2022/01/24 13:14:25;;;;;;;;;;;6.10;99.90;;;;;;4992967;28;19934;-71
2022/01/24 13:22:34;;;;;;;;;;;5.90;99.90;;;;;;5002784;28;19975;-72
2022/01/24 13:25:05;;;;;;;;;;;6.00;99.50;;;;;;5004830;28;19925;-72
2022/01/24 13:27:36;;;;;;;;;;;6.00;99.20;;;;;;4994824;28;19940;-72
2022/01/24 13:30:04;;;;;;;;;;;6.10;99.50;;;;;;4993462;28;19933;-71
2022/01/24 13:32:46;;;;;;;;;;;6.50;99.30;;;;;;4988955;28;19930;-73
2022/01/24 13:35:13;;;;;;;;;;;6.70;98.20;;;;;;4985640;28;19993;-71
2022/01/24 13:37:41;;;;;;;;;;;6.60;98.70;;;;;;4994853;28;19932;-71
2022/01/24 13:40:09;;;;;;;;;;;6.40;98.60;;;;;;4995151;28;19926;-71
2022/01/24 13:42:35;;;;;;;;;;;6.30;98.80;;;;;;4994163;28;19930;-72
2022/01/24 13:45:03;;;;;;;;;;;6.10;98.60;;;;;;4992209;28;20012;-73
2022/01/24 13:47:30;;;;;;;;;;;6.10;98.70;;;;;;4990203;28;19926;-75
2022/01/24 13:49:58;;;;;;;;;;;6.20;98.90;;;;;;4994827;28;20479;-75
2022/01/24 13:52:29;;;;;;;;;;;6.30;98.80;;;;;;4989824;28;20092;-76
2022/01/24 13:55:13;;;;;;;;;;;6.40;98.00;;;;;;4993093;28;19929;-74
2022/01/24 13:57:43;;;;;;;;;;;6.40;98.30;;;;;;4998044;28;19938;-75
2022/01/24 14:00:11;;;;;;;;;;;6.30;98.30;;;;;;5004421;28;19925;-74
2022/01/24 14:02:37;;;;;;;;;;;6.30;98.40;;;;;;4996425;28;19980;-75
2022/01/24 14:05:05;;;;;;;;;;;6.20;99.30;;;;;;4999692;28;19932;-73
2022/01/24 14:07:33;;;;;;;;;;;6.10;99.00;;;;;;4996594;28;19937;-74
2022/01/24 14:10:02;;;;;;;;;;;6.10;99.00;;;;;;5011076;28;19989;-74
2022/01/24 14:12:34;;;;;;;;;;;6.20;99.00;;;;;;4999892;28;19940;-74
2022/01/24 14:15:06;;;;;;;;;;;6.20;99.10;;;;;;5010716;28;19936;-73
2022/01/24 14:17:44;;;;;;;;;;;6.30;99.10;;;;;;4994828;28;19926;-74
2022/01/24 14:20:12;;;;;;;;;;;6.10;98.60;;;;;;4989197;28;19933;-74
2022/01/24 14:22:40;;;;;;;;;;;6.20;98.70;;;;;;4992262;28;19934;-74
2022/01/24 14:25:11;;;;;;;;;;;6.20;99.00;;;;;;4994617;28;20308;-75
2022/01/24 14:27:38;;;;;;;;;;;6.10;98.80;;;;;;5006144;28;20020;-75
2022/01/24 14:30:07;;;;;;;;;;;6.10;98.90;;;;;;4997673;28;20016;-75
2022/01/24 14:32:38;;;;;;;;;;;6.20;98.80;;;;;;4997292;28;19998;-75
2022/01/24 14:35:06;;;;;;;;;;;6.20;98.70;;;;;;4995785;28;19926;-75
2022/01/24 14:37:47;;;;;;;;;;;6.20;98.70;;;;;;4999056;28;19934;-73
2022/01/24 14:40:28;;;;;;;;;;;6.20;99.00;;;;;;4993801;28;19929;-75
2022/01/24 14:44:53;;;;;;;;;;;6.20;99.30;;;;;;4995606;28;19934;-75
2022/01/24 14:45:45;;;;;;;;;;;6.10;98.70;;;;;;4989833;28;20150;-75
2022/01/24 14:48:12;;;;;;;;;;;6.10;98.80;;;;;;5005147;28;19933;-74
2022/01/24 14:50:39;;;;;;;;;;;6.00;99.20;;;;;;4992146;28;19926;-76
2022/01/24 14:53:08;;;;;;;;;;;6.00;99.10;;;;;;4988898;28;20295;-76
2022/01/24 14:55:38;;;;;;;;;;;6.00;99.20;;;;;;4991126;28;20353;-77
2022/01/24 14:58:06;;;;;;;;;;;5.90;98.80;;;;;;4989266;28;19929;-75
2022/01/24 15:00:33;;;;;;;;;;;6.00;99.10;;;;;;4999295;28;19926;-74
2022/01/24 15:03:00;;;;;;;;;;;5.90;99.10;;;;;;4997076;28;19933;-72
2022/01/24 15:05:27;;;;;;;;;;;5.90;99.10;;;;;;4992948;28;19934;-75
2022/01/24 15:07:54;;;;;;;;;;;5.90;99.30;;;;;;4993740;28;19925;-75
2022/01/24 15:10:20;;;;;;;;;;;5.90;99.30;;;;;;4996320;28;20008;-75
2022/01/24 15:12:52;;;;;;;;;;;5.80;99.20;;;;;;4994654;28;19933;-75
2022/01/24 15:15:22;;;;;;;;;;;5.80;99.20;;;;;;4993819;28;19953;-75
2022/01/24 15:25:58;;;;;;;;;;;5.70;99.90;;;;;;4998694;28;20066;-73
2022/01/24 15:28:26;;;;;;;;;;;5.70;99.90;;;;;;4998677;28;20391;-73
2022/01/24 15:30:54;;;;;;;;;;;5.60;99.90;;;;;;4995420;28;19933;-73
2022/01/24 15:33:21;;;;;;;;;;;5.60;99.90;;;;;;4993766;28;19978;-74
2022/01/24 15:35:47;;;;;;;;;;;5.60;99.90;;;;;;4994382;28;19930;-74
2022/01/24 15:38:14;;;;;;;;;;;5.60;99.90;;;;;;4993819;28;20397;-74
2022/01/24 15:40:41;;;;;;;;;;;5.50;99.90;;;;;;4994649;28;19925;-73
2022/01/24 15:43:26;;;;;;;;;;;5.50;99.90;;;;;;4992106;28;20456;-74
2022/01/24 15:46:01;;;;;;;;;;;5.50;99.90;;;;;;4990156;28;20374;-74
2022/01/24 15:48:28;;;;;;;;;;;5.40;99.90;;;;;;4994071;28;21821;-74
2022/01/24 15:50:54;;;;;;;;;;;5.30;99.90;;;;;;4992990;28;19968;-75
2022/01/24 15:53:22;;;;;;;;;;;5.30;99.90;;;;;;4994356;28;19934;-75
2022/01/24 15:56:14;;;;;;;;;;;5.20;99.90;;;;;;4996691;28;19938;-75
2022/01/24 15:58:41;;;;;;;;;;;5.20;99.90;;;;;;4997386;28;19926;-74
2022/01/24 16:01:09;;;;;;;;;;;5.10;99.90;;;;;;4995057;28;20004;-75
2022/01/24 16:03:36;;;;;;;;;;;5.10;99.90;;;;;;4993661;28;19940;-74